sensor_id;sensor_type;location;lat;lon;timestamp;pressure;altitude;pressure_sealevel;temperature
68911;BMP180;55953;51.650;-0.522;2022-12-13T00:01:47;100082.20;;;-1.00
68911;BMP180;55953;51.650;-0.522;2022-12-13T00:04:19;100077.20;;;-1.00
68911;BMP180;55953;51.650;-0.522;2022-12-13T00:06:48;100075.60;;;-1.00
68911;BMP180;55953;51.650;-0.522;2022-12-13T00:09:18;100073.80;;;-1.00
68911;BMP180;55953;51.650;-0.522;2022-12-13T00:11:47;100077.00;;;-1.00
68911;BMP180;55953;51.650;-0.522;2022-12-13T00:14:16;100075.20;;;-1.00
68911;BMP180;55953;51.650;-0.522;2022-12-13T00:16:47;100080.60;;;-1.00
68911;BMP180;55953;51.650;-0.522;2022-12-13T00:19:18;100073.20;;;-0.90
68911;BMP180;55953;51.650;-0.522;2022-12-13T00:21:47;100079.20;;;-1.00
68911;BMP180;55953;51.650;-0.522;2022-12-13T00:24:15;100074.80;;;-1.00
68911;BMP180;55953;51.650;-0.522;2022-12-13T00:26:43;100074.00;;;-1.10
68911;BMP180;55953;51.650;-0.522;2022-12-13T00:29:11;100084.20;;;-1.10
68911;BMP180;55953;51.650;-0.522;2022-12-13T00:31:40;100076.40;;;-1.10
68911;BMP180;55953;51.650;-0.522;2022-12-13T00:34:27;100069.00;;;-1.10
68911;BMP180;55953;51.650;-0.522;2022-12-13T00:36:56;100065.80;;;-1.10
68911;BMP180;55953;51.650;-0.522;2022-12-13T00:39:28;100067.00;;;-1.10
68911;BMP180;55953;51.650;-0.522;2022-12-13T00:41:56;100060.40;;;-1.02
68911;BMP180;55953;51.650;-0.522;2022-12-13T00:44:25;100061.40;;;-1.00
68911;BMP180;55953;51.650;-0.522;2022-12-13T00:46:53;100064.80;;;-1.00
68911;BMP180;55953;51.650;-0.522;2022-12-13T00:49:22;100060.20;;;-1.06
68911;BMP180;55953;51.650;-0.522;2022-12-13T00:51:50;100060.80;;;-1.20
68911;BMP180;55953;51.650;-0.522;2022-12-13T00:54:18;100065.60;;;-1.20
68911;BMP180;55953;51.650;-0.522;2022-12-13T00:56:46;100055.00;;;-1.18
68911;BMP180;55953;51.650;-0.522;2022-12-13T00:59:14;100056.40;;;-1.16
68911;BMP180;55953;51.650;-0.522;2022-12-13T01:01:42;100050.60;;;-1.20
68911;BMP180;55953;51.650;-0.522;2022-12-13T01:04:12;100042.20;;;-1.24
68911;BMP180;55953;51.650;-0.522;2022-12-13T01:06:45;100038.40;;;-1.24
68911;BMP180;55953;51.650;-0.522;2022-12-13T01:09:25;100037.40;;;-1.28
68911;BMP180;55953;51.650;-0.522;2022-12-13T01:12:03;100039.60;;;-1.30
68911;BMP180;55953;51.650;-0.522;2022-12-13T01:14:37;100038.80;;;-1.28
68911;BMP180;55953;51.650;-0.522;2022-12-13T01:17:06;100039.00;;;-1.20
68911;BMP180;55953;51.650;-0.522;2022-12-13T01:19:35;100037.80;;;-1.22
68911;BMP180;55953;51.650;-0.522;2022-12-13T01:22:05;100038.00;;;-1.30
68911;BMP180;55953;51.650;-0.522;2022-12-13T01:24:33;100043.80;;;-1.24
68911;BMP180;55953;51.650;-0.522;2022-12-13T01:27:01;100035.60;;;-1.10
68911;BMP180;55953;51.650;-0.522;2022-12-13T01:29:29;100039.80;;;-1.10
68911;BMP180;55953;51.650;-0.522;2022-12-13T01:31:56;100031.40;;;-1.10
68911;BMP180;55953;51.650;-0.522;2022-12-13T01:34:24;100027.80;;;-1.10
68911;BMP180;55953;51.650;-0.522;2022-12-13T01:36:55;100031.00;;;-1.12
68911;BMP180;55953;51.650;-0.522;2022-12-13T01:39:26;100034.60;;;-1.20
68911;BMP180;55953;51.650;-0.522;2022-12-13T01:41:55;100035.80;;;-1.20
68911;BMP180;55953;51.650;-0.522;2022-12-13T01:47:43;100043.60;;;-1.40
68911;BMP180;55953;51.650;-0.522;2022-12-13T01:50:21;100041.80;;;-1.32
68911;BMP180;55953;51.650;-0.522;2022-12-13T01:52:53;100043.20;;;-1.34
68911;BMP180;55953;51.650;-0.522;2022-12-13T01:55:31;100045.40;;;-1.38
68911;BMP180;55953;51.650;-0.522;2022-12-13T01:58:10;100050.00;;;-1.40
68911;BMP180;55953;51.650;-0.522;2022-12-13T02:00:40;100051.80;;;-1.40
68911;BMP180;55953;51.650;-0.522;2022-12-13T02:03:09;100050.60;;;-1.40
68911;BMP180;55953;51.650;-0.522;2022-12-13T02:06:08;100052.20;;;-1.40
68911;BMP180;55953;51.650;-0.522;2022-12-13T02:08:41;100055.20;;;-1.40
68911;BMP180;55953;51.650;-0.522;2022-12-13T02:11:10;100056.60;;;-1.40
68911;BMP180;55953;51.650;-0.522;2022-12-13T02:13:41;100056.60;;;-1.30
68911;BMP180;55953;51.650;-0.522;2022-12-13T02:19:59;100061.40;;;-1.22
68911;BMP180;55953;51.650;-0.522;2022-12-13T02:34:17;100060.80;;;-1.22
68911;BMP180;55953;51.650;-0.522;2022-12-13T02:37:22;100065.60;;;-1.30
68911;BMP180;55953;51.650;-0.522;2022-12-13T02:40:15;100064.00;;;-1.30
68911;BMP180;55953;51.650;-0.522;2022-12-13T02:42:56;100062.80;;;-1.30
68911;BMP180;55953;51.650;-0.522;2022-12-13T02:45:48;100061.00;;;-1.20
68911;BMP180;55953;51.650;-0.522;2022-12-13T02:48:26;100059.20;;;-1.10
68911;BMP180;55953;51.650;-0.522;2022-12-13T02:50:58;100057.80;;;-1.10
68911;BMP180;55953;51.650;-0.522;2022-12-13T02:53:27;100049.60;;;-1.10
68911;BMP180;55953;51.650;-0.522;2022-12-13T02:56:00;100056.00;;;-1.10
68911;BMP180;55953;51.650;-0.522;2022-12-13T02:58:33;100058.60;;;-1.10
68911;BMP180;55953;51.650;-0.522;2022-12-13T03:01:27;100051.60;;;-1.06
68911;BMP180;55953;51.650;-0.522;2022-12-13T03:08:30;100051.60;;;-1.06
68911;BMP180;55953;51.650;-0.522;2022-12-13T03:11:11;100050.60;;;-1.00
68911;BMP180;55953;51.650;-0.522;2022-12-13T03:13:53;100056.40;;;-1.00
68911;BMP180;55953;51.650;-0.522;2022-12-13T03:16:42;100065.00;;;-1.00
68911;BMP180;55953;51.650;-0.522;2022-12-13T03:19:12;100067.20;;;-1.00
68911;BMP180;55953;51.650;-0.522;2022-12-13T03:21:45;100061.00;;;-0.92
68911;BMP180;55953;51.650;-0.522;2022-12-13T03:24:17;100065.80;;;-0.90
68911;BMP180;55953;51.650;-0.522;2022-12-13T03:26:48;100063.00;;;-1.00
68911;BMP180;55953;51.650;-0.522;2022-12-13T03:29:17;100061.80;;;-1.00
68911;BMP180;55953;51.650;-0.522;2022-12-13T03:31:52;100070.40;;;-0.98
68911;BMP180;55953;51.650;-0.522;2022-12-13T03:34:20;100066.20;;;-1.00
68911;BMP180;55953;51.650;-0.522;2022-12-13T03:36:51;100065.40;;;-0.90
68911;BMP180;55953;51.650;-0.522;2022-12-13T03:39:21;100063.40;;;-0.80
68911;BMP180;55953;51.650;-0.522;2022-12-13T03:41:49;100059.80;;;-0.90
68911;BMP180;55953;51.650;-0.522;2022-12-13T03:44:17;100057.40;;;-0.86
68911;BMP180;55953;51.650;-0.522;2022-12-13T03:46:45;100056.40;;;-0.90
68911;BMP180;55953;51.650;-0.522;2022-12-13T03:49:13;100052.00;;;-0.90
68911;BMP180;55953;51.650;-0.522;2022-12-13T03:51:44;100048.20;;;-0.90
68911;BMP180;55953;51.650;-0.522;2022-12-13T03:54:12;100048.00;;;-0.84
68911;BMP180;55953;51.650;-0.522;2022-12-13T03:56:40;100048.60;;;-0.90
68911;BMP180;55953;51.650;-0.522;2022-12-13T03:59:07;100047.40;;;-0.90
68911;BMP180;55953;51.650;-0.522;2022-12-13T04:01:35;100046.80;;;-0.92
68911;BMP180;55953;51.650;-0.522;2022-12-13T04:04:03;100038.60;;;-1.00
68911;BMP180;55953;51.650;-0.522;2022-12-13T04:06:31;100037.00;;;-1.00
68911;BMP180;55953;51.650;-0.522;2022-12-13T04:09:00;100031.80;;;-0.92
68911;BMP180;55953;51.650;-0.522;2022-12-13T04:11:27;100029.80;;;-0.94
68911;BMP180;55953;51.650;-0.522;2022-12-13T04:14:14;100028.80;;;-0.90
68911;BMP180;55953;51.650;-0.522;2022-12-13T04:16:52;100026.40;;;-0.90
68911;BMP180;55953;51.650;-0.522;2022-12-13T04:19:20;100027.00;;;-1.00
68911;BMP180;55953;51.650;-0.522;2022-12-13T04:21:52;100020.60;;;-1.00
68911;BMP180;55953;51.650;-0.522;2022-12-13T04:24:22;100016.40;;;-1.04
68911;BMP180;55953;51.650;-0.522;2022-12-13T04:27:00;100012.20;;;-1.10
68911;BMP180;55953;51.650;-0.522;2022-12-13T04:29:28;100010.60;;;-1.20
68911;BMP180;55953;51.650;-0.522;2022-12-13T04:32:03;100012.00;;;-1.10
68911;BMP180;55953;51.650;-0.522;2022-12-13T04:34:31;100012.20;;;-1.10
68911;BMP180;55953;51.650;-0.522;2022-12-13T04:37:04;100008.00;;;-1.10
68911;BMP180;55953;51.650;-0.522;2022-12-13T04:39:32;100008.40;;;-1.10
68911;BMP180;55953;51.650;-0.522;2022-12-13T04:42:02;100017.40;;;-1.10
68911;BMP180;55953;51.650;-0.522;2022-12-13T04:44:31;100023.20;;;-1.10
68911;BMP180;55953;51.650;-0.522;2022-12-13T04:47:03;100018.40;;;-1.10
68911;BMP180;55953;51.650;-0.522;2022-12-13T04:49:32;100013.80;;;-1.00
68911;BMP180;55953;51.650;-0.522;2022-12-13T04:52:01;100008.80;;;-1.00
68911;BMP180;55953;51.650;-0.522;2022-12-13T04:54:30;100007.80;;;-0.90
68911;BMP180;55953;51.650;-0.522;2022-12-13T04:57:06;100010.00;;;-1.00
68911;BMP180;55953;51.650;-0.522;2022-12-13T04:59:35;100009.80;;;-1.00
68911;BMP180;55953;51.650;-0.522;2022-12-13T05:02:05;100013.00;;;-1.10
68911;BMP180;55953;51.650;-0.522;2022-12-13T05:04:33;100018.80;;;-1.12
68911;BMP180;55953;51.650;-0.522;2022-12-13T05:07:01;100018.20;;;-1.08
68911;BMP180;55953;51.650;-0.522;2022-12-13T05:09:29;100011.60;;;-1.00
68911;BMP180;55953;51.650;-0.522;2022-12-13T05:11:57;100014.40;;;-1.00
68911;BMP180;55953;51.650;-0.522;2022-12-13T05:14:32;100013.20;;;-0.98
68911;BMP180;55953;51.650;-0.522;2022-12-13T05:17:00;100013.00;;;-0.90
68911;BMP180;55953;51.650;-0.522;2022-12-13T05:19:29;100004.00;;;-0.90
68911;BMP180;55953;51.650;-0.522;2022-12-13T05:21:59;100013.00;;;-0.90
68911;BMP180;55953;51.650;-0.522;2022-12-13T05:24:30;100013.60;;;-0.80
68911;BMP180;55953;51.650;-0.522;2022-12-13T05:26:58;100013.20;;;-0.88
68911;BMP180;55953;51.650;-0.522;2022-12-13T05:29:26;100007.80;;;-0.90
68911;BMP180;55953;51.650;-0.522;2022-12-13T05:31:54;100008.20;;;-0.80
68911;BMP180;55953;51.650;-0.522;2022-12-13T05:34:22;100001.40;;;-0.90
68911;BMP180;55953;51.650;-0.522;2022-12-13T05:36:50;100003.40;;;-0.80
68911;BMP180;55953;51.650;-0.522;2022-12-13T05:39:18;100001.60;;;-0.80
68911;BMP180;55953;51.650;-0.522;2022-12-13T05:41:58;99994.80;;;-0.80
68911;BMP180;55953;51.650;-0.522;2022-12-13T05:44:31;99997.00;;;-0.80
68911;BMP180;55953;51.650;-0.522;2022-12-13T05:47:00;99995.60;;;-0.80
68911;BMP180;55953;51.650;-0.522;2022-12-13T05:49:30;100000.80;;;-0.70
68911;BMP180;55953;51.650;-0.522;2022-12-13T05:51:58;99997.80;;;-0.70
68911;BMP180;55953;51.650;-0.522;2022-12-13T05:54:26;99996.40;;;-0.70
68911;BMP180;55953;51.650;-0.522;2022-12-13T05:56:54;99999.20;;;-0.70
68911;BMP180;55953;51.650;-0.522;2022-12-13T05:59:22;100001.40;;;-0.80
68911;BMP180;55953;51.650;-0.522;2022-12-13T06:01:50;99993.80;;;-0.90
68911;BMP180;55953;51.650;-0.522;2022-12-13T06:04:18;99997.20;;;-0.90
68911;BMP180;55953;51.650;-0.522;2022-12-13T06:06:50;100004.00;;;-0.90
68911;BMP180;55953;51.650;-0.522;2022-12-13T06:09:20;99994.40;;;-0.90
68911;BMP180;55953;51.650;-0.522;2022-12-13T06:11:48;99993.00;;;-0.90
68911;BMP180;55953;51.650;-0.522;2022-12-13T06:14:15;99997.40;;;-0.88
68911;BMP180;55953;51.650;-0.522;2022-12-13T06:16:50;99994.40;;;-0.80
68911;BMP180;55953;51.650;-0.522;2022-12-13T06:19:20;100001.00;;;-0.80
68911;BMP180;55953;51.650;-0.522;2022-12-13T06:21:49;99998.60;;;-0.72
68911;BMP180;55953;51.650;-0.522;2022-12-13T06:24:20;99995.00;;;-0.74
68911;BMP180;55953;51.650;-0.522;2022-12-13T06:26:49;100001.60;;;-0.80
68911;BMP180;55953;51.650;-0.522;2022-12-13T06:29:20;100004.60;;;-0.90
68911;BMP180;55953;51.650;-0.522;2022-12-13T06:31:58;100006.60;;;-0.90
68911;BMP180;55953;51.650;-0.522;2022-12-13T06:34:34;100003.60;;;-0.90
68911;BMP180;55953;51.650;-0.522;2022-12-13T06:37:06;100006.40;;;-0.82
68911;BMP180;55953;51.650;-0.522;2022-12-13T06:39:34;100007.60;;;-0.90
68911;BMP180;55953;51.650;-0.522;2022-12-13T06:42:04;100012.60;;;-0.90
68911;BMP180;55953;51.650;-0.522;2022-12-13T06:44:34;100012.40;;;-0.82
68911;BMP180;55953;51.650;-0.522;2022-12-13T06:47:04;100020.00;;;-0.90
68911;BMP180;55953;51.650;-0.522;2022-12-13T06:49:40;100031.20;;;-0.90
68911;BMP180;55953;51.650;-0.522;2022-12-13T06:52:12;100036.00;;;-0.80
68911;BMP180;55953;51.650;-0.522;2022-12-13T06:54:41;100032.20;;;-0.80
68911;BMP180;55953;51.650;-0.522;2022-12-13T06:57:11;100024.80;;;-0.80
68911;BMP180;55953;51.650;-0.522;2022-12-13T06:59:39;100008.80;;;-0.80
68911;BMP180;55953;51.650;-0.522;2022-12-13T07:02:08;100012.60;;;-0.80
68911;BMP180;55953;51.650;-0.522;2022-12-13T07:04:52;100010.80;;;-0.80
68911;BMP180;55953;51.650;-0.522;2022-12-13T07:07:21;100016.80;;;-0.84
68911;BMP180;55953;51.650;-0.522;2022-12-13T07:09:49;100013.60;;;-0.90
68911;BMP180;55953;51.650;-0.522;2022-12-13T07:12:17;100008.20;;;-0.90
68911;BMP180;55953;51.650;-0.522;2022-12-13T07:14:47;100012.20;;;-0.92
68911;BMP180;55953;51.650;-0.522;2022-12-13T07:17:15;100014.60;;;-0.90
68911;BMP180;55953;51.650;-0.522;2022-12-13T07:20:05;100016.40;;;-0.90
68911;BMP180;55953;51.650;-0.522;2022-12-13T07:22:37;100015.40;;;-0.90
68911;BMP180;55953;51.650;-0.522;2022-12-13T07:25:14;100012.20;;;-0.90
68911;BMP180;55953;51.650;-0.522;2022-12-13T07:28:01;100015.00;;;-0.80
68911;BMP180;55953;51.650;-0.522;2022-12-13T07:30:36;100017.80;;;-0.90
68911;BMP180;55953;51.650;-0.522;2022-12-13T07:33:08;100013.40;;;-0.80
68911;BMP180;55953;51.650;-0.522;2022-12-13T07:35:37;100013.40;;;-0.80
68911;BMP180;55953;51.650;-0.522;2022-12-13T07:38:07;100014.60;;;-0.80
68911;BMP180;55953;51.650;-0.522;2022-12-13T07:40:40;100012.40;;;-0.90
68911;BMP180;55953;51.650;-0.522;2022-12-13T07:43:08;100022.20;;;-0.80
68911;BMP180;55953;51.650;-0.522;2022-12-13T07:45:37;100023.60;;;-0.90
68911;BMP180;55953;51.650;-0.522;2022-12-13T07:48:05;100023.40;;;-0.80
68911;BMP180;55953;51.650;-0.522;2022-12-13T07:50:35;100018.40;;;-0.80
68911;BMP180;55953;51.650;-0.522;2022-12-13T07:53:08;100022.20;;;-0.70
68911;BMP180;55953;51.650;-0.522;2022-12-13T07:55:36;100029.00;;;-0.70
68911;BMP180;55953;51.650;-0.522;2022-12-13T07:58:22;100026.40;;;-0.70
68911;BMP180;55953;51.650;-0.522;2022-12-13T08:00:49;100036.20;;;-0.72
68911;BMP180;55953;51.650;-0.522;2022-12-13T08:03:17;100041.40;;;-0.70
68911;BMP180;55953;51.650;-0.522;2022-12-13T08:06:08;100036.20;;;-0.72
68911;BMP180;55953;51.650;-0.522;2022-12-13T08:08:37;100035.00;;;-0.70
68911;BMP180;55953;51.650;-0.522;2022-12-13T08:11:11;100037.20;;;-0.70
68911;BMP180;55953;51.650;-0.522;2022-12-13T08:13:40;100029.20;;;-0.70
68911;BMP180;55953;51.650;-0.522;2022-12-13T08:16:12;100025.20;;;-0.60
68911;BMP180;55953;51.650;-0.522;2022-12-13T08:18:56;100021.20;;;-0.60
68911;BMP180;55953;51.650;-0.522;2022-12-13T08:21:36;100019.60;;;-0.60
68911;BMP180;55953;51.650;-0.522;2022-12-13T08:24:25;100020.00;;;-0.60
68911;BMP180;55953;51.650;-0.522;2022-12-13T08:26:57;100009.40;;;-0.60
68911;BMP180;55953;51.650;-0.522;2022-12-13T08:29:30;100014.40;;;-0.50
68911;BMP180;55953;51.650;-0.522;2022-12-13T08:32:05;100015.20;;;-0.60
68911;BMP180;55953;51.650;-0.522;2022-12-13T08:34:34;100012.40;;;-0.50
68911;BMP180;55953;51.650;-0.522;2022-12-13T08:37:03;100016.40;;;-0.50
68911;BMP180;55953;51.650;-0.522;2022-12-13T08:39:34;100017.40;;;-0.40
68911;BMP180;55953;51.650;-0.522;2022-12-13T08:42:14;100023.40;;;-0.24
68911;BMP180;55953;51.650;-0.522;2022-12-13T08:44:51;100020.20;;;-0.10
68911;BMP180;55953;51.650;-0.522;2022-12-13T08:47:23;100016.60;;;0.00
68911;BMP180;55953;51.650;-0.522;2022-12-13T08:49:55;100016.60;;;0.00
68911;BMP180;55953;51.650;-0.522;2022-12-13T08:52:34;100015.80;;;0.10
68911;BMP180;55953;51.650;-0.522;2022-12-13T08:55:09;100016.40;;;0.10
68911;BMP180;55953;51.650;-0.522;2022-12-13T08:57:38;100009.20;;;0.20
68911;BMP180;55953;51.650;-0.522;2022-12-13T09:00:12;100016.40;;;0.20
68911;BMP180;55953;51.650;-0.522;2022-12-13T09:02:41;100016.60;;;0.20
68911;BMP180;55953;51.650;-0.522;2022-12-13T09:05:10;100015.00;;;0.20
68911;BMP180;55953;51.650;-0.522;2022-12-13T09:07:39;100012.60;;;0.20
68911;BMP180;55953;51.650;-0.522;2022-12-13T09:10:11;100011.20;;;0.36
68911;BMP180;55953;51.650;-0.522;2022-12-13T09:12:55;100006.60;;;0.32
68911;BMP180;55953;51.650;-0.522;2022-12-13T09:15:31;100005.20;;;0.40
68911;BMP180;55953;51.650;-0.522;2022-12-13T09:18:02;100011.00;;;0.40
68911;BMP180;55953;51.650;-0.522;2022-12-13T09:20:33;100005.60;;;0.40
68911;BMP180;55953;51.650;-0.522;2022-12-13T09:23:09;100012.80;;;0.48
68911;BMP180;55953;51.650;-0.522;2022-12-13T09:25:58;100002.40;;;0.50
68911;BMP180;55953;51.650;-0.522;2022-12-13T09:28:35;100001.80;;;0.60
68911;BMP180;55953;51.650;-0.522;2022-12-13T09:31:13;99998.40;;;0.80
68911;BMP180;55953;51.650;-0.522;2022-12-13T09:33:43;99999.00;;;0.80
68911;BMP180;55953;51.650;-0.522;2022-12-13T09:36:16;99997.00;;;0.84
68911;BMP180;55953;51.650;-0.522;2022-12-13T09:38:46;99986.80;;;0.80
68911;BMP180;55953;51.650;-0.522;2022-12-13T09:41:26;99988.40;;;0.86
68911;BMP180;55953;51.650;-0.522;2022-12-13T09:44:05;99983.80;;;0.94
68911;BMP180;55953;51.650;-0.522;2022-12-13T09:46:55;99990.20;;;1.10
68911;BMP180;55953;51.650;-0.522;2022-12-13T09:49:37;99993.60;;;1.10
68911;BMP180;55953;51.650;-0.522;2022-12-13T09:52:13;99993.00;;;1.20
68911;BMP180;55953;51.650;-0.522;2022-12-13T09:54:53;99989.00;;;1.30
68911;BMP180;55953;51.650;-0.522;2022-12-13T09:57:30;99985.60;;;1.28
68911;BMP180;55953;51.650;-0.522;2022-12-13T10:00:07;99981.20;;;1.26
68911;BMP180;55953;51.650;-0.522;2022-12-13T10:02:45;99985.40;;;1.30
68911;BMP180;55953;51.650;-0.522;2022-12-13T10:05:25;99981.60;;;1.36
68911;BMP180;55953;51.650;-0.522;2022-12-13T10:08:16;99975.00;;;1.40
68911;BMP180;55953;51.650;-0.522;2022-12-13T10:10:49;99968.00;;;1.48
68911;BMP180;55953;51.650;-0.522;2022-12-13T10:13:42;99965.00;;;1.60
68911;BMP180;55953;51.650;-0.522;2022-12-13T10:16:36;99961.80;;;1.70
68911;BMP180;55953;51.650;-0.522;2022-12-13T10:19:16;99955.40;;;1.80
68911;BMP180;55953;51.650;-0.522;2022-12-13T10:21:58;99957.20;;;1.80
68911;BMP180;55953;51.650;-0.522;2022-12-13T10:27:42;99958.60;;;1.90
68911;BMP180;55953;51.650;-0.522;2022-12-13T10:30:13;99949.40;;;1.90
68911;BMP180;55953;51.650;-0.522;2022-12-13T10:35:33;99940.40;;;2.00
68911;BMP180;55953;51.650;-0.522;2022-12-13T10:40:38;99936.20;;;2.10
68911;BMP180;55953;51.650;-0.522;2022-12-13T10:43:21;99934.00;;;2.10
68911;BMP180;55953;51.650;-0.522;2022-12-13T10:48:48;99921.20;;;2.20
68911;BMP180;55953;51.650;-0.522;2022-12-13T10:51:20;99917.40;;;2.30
68911;BMP180;55953;51.650;-0.522;2022-12-13T10:53:51;99914.80;;;2.40
68911;BMP180;55953;51.650;-0.522;2022-12-13T10:56:32;99908.20;;;2.40
68911;BMP180;55953;51.650;-0.522;2022-12-13T11:01:47;99903.00;;;2.30
68911;BMP180;55953;51.650;-0.522;2022-12-13T11:04:33;99903.40;;;2.34
68911;BMP180;55953;51.650;-0.522;2022-12-13T11:09:50;99901.80;;;2.30
68911;BMP180;55953;51.650;-0.522;2022-12-13T11:12:25;99898.20;;;2.40
68911;BMP180;55953;51.650;-0.522;2022-12-13T11:15:02;99894.60;;;2.40
68911;BMP180;55953;51.650;-0.522;2022-12-13T11:17:36;99888.80;;;2.48
68911;BMP180;55953;51.650;-0.522;2022-12-13T11:20:16;99890.60;;;2.58
68911;BMP180;55953;51.650;-0.522;2022-12-13T11:22:46;99889.00;;;2.60
68911;BMP180;55953;51.650;-0.522;2022-12-13T11:25:29;99884.00;;;2.60
68911;BMP180;55953;51.650;-0.522;2022-12-13T11:28:40;99888.00;;;2.70
68911;BMP180;55953;51.650;-0.522;2022-12-13T11:34:17;99873.60;;;2.82
68911;BMP180;55953;51.650;-0.522;2022-12-13T11:37:15;99873.40;;;2.90
68911;BMP180;55953;51.650;-0.522;2022-12-13T11:40:13;99871.80;;;2.90
68911;BMP180;55953;51.650;-0.522;2022-12-13T11:42:49;99869.20;;;2.90
68911;BMP180;55953;51.650;-0.522;2022-12-13T11:45:26;99872.80;;;3.00
68911;BMP180;55953;51.650;-0.522;2022-12-13T11:48:20;99871.60;;;3.06
68911;BMP180;55953;51.650;-0.522;2022-12-13T11:50:52;99861.80;;;3.06
68911;BMP180;55953;51.650;-0.522;2022-12-13T11:56:33;99848.80;;;3.10
68911;BMP180;55953;51.650;-0.522;2022-12-13T11:59:36;99847.20;;;3.20
68911;BMP180;55953;51.650;-0.522;2022-12-13T12:02:26;99841.00;;;3.20
68911;BMP180;55953;51.650;-0.522;2022-12-13T12:04:57;99834.60;;;3.20
68911;BMP180;55953;51.650;-0.522;2022-12-13T12:07:44;99829.40;;;3.20
68911;BMP180;55953;51.650;-0.522;2022-12-13T12:10:40;99826.00;;;3.26
68911;BMP180;55953;51.650;-0.522;2022-12-13T12:13:23;99816.60;;;3.30
68911;BMP180;55953;51.650;-0.522;2022-12-13T12:16:20;99808.60;;;3.24
68911;BMP180;55953;51.650;-0.522;2022-12-13T12:18:51;99804.80;;;3.20
68911;BMP180;55953;51.650;-0.522;2022-12-13T12:21:36;99805.40;;;3.20
68911;BMP180;55953;51.650;-0.522;2022-12-13T12:30:34;99796.00;;;3.30
68911;BMP180;55953;51.650;-0.522;2022-12-13T12:42:14;99784.80;;;3.52
68911;BMP180;55953;51.650;-0.522;2022-12-13T12:50:31;99776.20;;;3.70
68911;BMP180;55953;51.650;-0.522;2022-12-13T12:53:16;99776.80;;;3.70
68911;BMP180;55953;51.650;-0.522;2022-12-13T12:56:13;99773.40;;;3.60
68911;BMP180;55953;51.650;-0.522;2022-12-13T12:58:56;99765.40;;;3.60
68911;BMP180;55953;51.650;-0.522;2022-12-13T13:01:52;99765.00;;;3.60
68911;BMP180;55953;51.650;-0.522;2022-12-13T13:04:30;99759.40;;;3.60
68911;BMP180;55953;51.650;-0.522;2022-12-13T13:07:09;99767.00;;;3.80
68911;BMP180;55953;51.650;-0.522;2022-12-13T13:09:53;99763.20;;;3.80
68911;BMP180;55953;51.650;-0.522;2022-12-13T13:12:24;99760.40;;;3.74
68911;BMP180;55953;51.650;-0.522;2022-12-13T13:14:57;99757.40;;;3.70
68911;BMP180;55953;51.650;-0.522;2022-12-13T13:20:19;99748.40;;;3.60
68911;BMP180;55953;51.650;-0.522;2022-12-13T13:22:48;99747.20;;;3.56
68911;BMP180;55953;51.650;-0.522;2022-12-13T13:25:36;99748.80;;;3.50
68911;BMP180;55953;51.650;-0.522;2022-12-13T13:28:24;99744.00;;;3.40
68911;BMP180;55953;51.650;-0.522;2022-12-13T13:31:05;99743.00;;;3.30
68911;BMP180;55953;51.650;-0.522;2022-12-13T13:33:47;99744.20;;;3.40
68911;BMP180;55953;51.650;-0.522;2022-12-13T13:39:17;99736.00;;;3.40
68911;BMP180;55953;51.650;-0.522;2022-12-13T13:42:14;99732.20;;;3.36
68911;BMP180;55953;51.650;-0.522;2022-12-13T13:53:07;99728.20;;;3.28
68911;BMP180;55953;51.650;-0.522;2022-12-13T13:55:58;99722.00;;;3.26
68911;BMP180;55953;51.650;-0.522;2022-12-13T14:02:24;99721.60;;;3.10
68911;BMP180;55953;51.650;-0.522;2022-12-13T14:05:18;99723.80;;;3.00
68911;BMP180;55953;51.650;-0.522;2022-12-13T14:11:09;99723.60;;;2.76
68911;BMP180;55953;51.650;-0.522;2022-12-13T14:17:13;99719.20;;;2.70
68911;BMP180;55953;51.650;-0.522;2022-12-13T14:20:17;99718.80;;;2.70
68911;BMP180;55953;51.650;-0.522;2022-12-13T14:23:29;99718.60;;;2.60
68911;BMP180;55953;51.650;-0.522;2022-12-13T14:26:14;99718.80;;;2.60
68911;BMP180;55953;51.650;-0.522;2022-12-13T14:28:50;99717.40;;;2.60
68911;BMP180;55953;51.650;-0.522;2022-12-13T14:31:23;99719.00;;;2.56
68911;BMP180;55953;51.650;-0.522;2022-12-13T14:33:54;99718.80;;;2.58
68911;BMP180;55953;51.650;-0.522;2022-12-13T14:36:30;99713.60;;;2.50
68911;BMP180;55953;51.650;-0.522;2022-12-13T14:39:15;99716.00;;;2.50
68911;BMP180;55953;51.650;-0.522;2022-12-13T14:41:55;99716.00;;;2.40
68911;BMP180;55953;51.650;-0.522;2022-12-13T14:44:30;99720.40;;;2.40
68911;BMP180;55953;51.650;-0.522;2022-12-13T14:47:06;99722.40;;;2.30
68911;BMP180;55953;51.650;-0.522;2022-12-13T14:49:40;99722.00;;;2.22
68911;BMP180;55953;51.650;-0.522;2022-12-13T14:52:22;99724.60;;;2.20
68911;BMP180;55953;51.650;-0.522;2022-12-13T14:55:00;99728.60;;;2.20
68911;BMP180;55953;51.650;-0.522;2022-12-13T14:57:33;99726.00;;;2.10
68911;BMP180;55953;51.650;-0.522;2022-12-13T15:00:23;99724.60;;;2.10
68911;BMP180;55953;51.650;-0.522;2022-12-13T15:02:57;99725.80;;;2.00
68911;BMP180;55953;51.650;-0.522;2022-12-13T15:05:40;99725.40;;;2.00
68911;BMP180;55953;51.650;-0.522;2022-12-13T15:08:18;99727.20;;;1.90
68911;BMP180;55953;51.650;-0.522;2022-12-13T15:10:58;99725.40;;;1.80
68911;BMP180;55953;51.650;-0.522;2022-12-13T15:13:42;99725.20;;;1.80
68911;BMP180;55953;51.650;-0.522;2022-12-13T15:16:26;99723.00;;;1.80
68911;BMP180;55953;51.650;-0.522;2022-12-13T15:19:40;99724.60;;;1.78
68911;BMP180;55953;51.650;-0.522;2022-12-13T15:22:22;99732.40;;;1.80
68911;BMP180;55953;51.650;-0.522;2022-12-13T15:24:59;99733.60;;;1.80
68911;BMP180;55953;51.650;-0.522;2022-12-13T15:27:29;99738.60;;;1.70
68911;BMP180;55953;51.650;-0.522;2022-12-13T15:29:57;99736.20;;;1.60
68911;BMP180;55953;51.650;-0.522;2022-12-13T15:32:25;99728.80;;;1.50
68911;BMP180;55953;51.650;-0.522;2022-12-13T15:34:53;99732.20;;;1.50
68911;BMP180;55953;51.650;-0.522;2022-12-13T15:37:30;99733.60;;;1.60
68911;BMP180;55953;51.650;-0.522;2022-12-13T15:40:06;99733.60;;;1.50
68911;BMP180;55953;51.650;-0.522;2022-12-13T15:42:37;99724.00;;;1.48
68911;BMP180;55953;51.650;-0.522;2022-12-13T15:45:22;99718.00;;;1.40
68911;BMP180;55953;51.650;-0.522;2022-12-13T15:47:52;99718.40;;;1.40
68911;BMP180;55953;51.650;-0.522;2022-12-13T15:50:37;99710.00;;;1.40
68911;BMP180;55953;51.650;-0.522;2022-12-13T15:53:25;99710.20;;;1.40
68911;BMP180;55953;51.650;-0.522;2022-12-13T15:55:54;99718.20;;;1.30
68911;BMP180;55953;51.650;-0.522;2022-12-13T15:58:33;99714.00;;;1.30
68911;BMP180;55953;51.650;-0.522;2022-12-13T16:01:02;99716.80;;;1.30
68911;BMP180;55953;51.650;-0.522;2022-12-13T16:03:50;99726.80;;;1.20
68911;BMP180;55953;51.650;-0.522;2022-12-13T16:06:21;99731.20;;;1.20
68911;BMP180;55953;51.650;-0.522;2022-12-13T16:08:53;99720.20;;;1.30
68911;BMP180;55953;51.650;-0.522;2022-12-13T16:17:06;99726.80;;;0.90